Tollesboro, KY

1:32 AM EST on February 27, 2015 (GMT -0500)
Polecat Pike | Change Station
CLOSE
Current Station
Personal Weather Station
Location: Maysville, KY
Elevation: 866 ft
Nearby Weather Stations

Elev 866 ft 38.54 °N, 83.69 °W | Updated 5 minutes ago

Partly Cloudy
Partly Cloudy
11.3 °F
Feels Like 6 °F
N
3.2
Wind Variable Wind from NE

Today
High -- | Low -- °F
--% Chance of Precip.
Yesterday
High -- | Low -- °F
Precip. -- in
7:09 AM 6:24 PM
Waxing Gibbous, 66% visible
Pressure 30.33 in
Visibility 7.0 miles
Clouds Overcast 1500 ft
Windchill 6 °F
Dew Point 5 °F
Humidity 74%
Rainfall 0.00 in
Snow Depth Not available.
UV 0 out of 12
Pollen .60 out of 12
Air Quality Not available.
Flu Activity Not available.
METAR KIOB 270615Z AUTO 04006KT 7SM -SN OVC015 M08/M11 A3033 RMK AO2

More Conditions Fewer Conditions

Pressure 30.33 in
Visibility 7.0 miles
Clouds Overcast 1500 ft
Windchill 6 °F
Dew Point 5 °F
Humidity 74%
Rainfall 0.00 in
Snow Depth Not available.
UV 0 out of 12
Pollen .60 out of 12
Air Quality Not available.
Flu Activity Not available.
METAR KIOB 270615Z AUTO 04006KT 7SM -SN OVC015 M08/M11 A3033 RMK AO2

More Conditions Fewer Conditions

10-Day Weather Forecast

Almanac

Astronomy

Feb. 27, 2015 Rise Set
Actual Time
Civil Twilight
Nautical Twilight
Astronomical Twilight
Moon
Length of Visible Light
Length of Day
Tomorrow will be .
, % of the Moon is Illuminated

Today's Extremes

State Highs State Lows

Community

WunderPhotos

Upload Photos

1,800,646 photos uploaded!

WunderBlogs® & News

Nearby

Air Quality

  Air Quality AQ Index Pollutant
Not available.

Snow Depth

Station Depth Elevation

Earthquake Activity

City Distance Mag. Time & Date
Minimum magnitude displayed is 2.5.

Coastal Water Temperatures

Place Temperature

Nearby Weather Stations